createdAt,value
2018-06-21T00:00:20.396Z,6.53
2018-06-21T00:02:48.637Z,6.40
2018-06-21T00:05:16.819Z,6.17
2018-06-21T00:07:45.008Z,6.03
2018-06-21T00:10:13.248Z,6.57
2018-06-21T00:12:41.475Z,7.80
2018-06-21T00:15:09.693Z,7.53
2018-06-21T00:17:37.888Z,7.73
2018-06-21T00:20:06.250Z,6.83
2018-06-21T00:22:34.461Z,7.93
2018-06-21T00:25:02.701Z,6.80
2018-06-21T00:27:30.900Z,8.57
2018-06-21T00:29:59.128Z,9.17
2018-06-21T00:32:27.335Z,8.30
2018-06-21T00:34:55.302Z,7.93
2018-06-21T00:37:23.523Z,8.03
2018-06-21T00:39:51.740Z,7.03
2018-06-21T00:42:19.962Z,7.87
2018-06-21T00:44:48.145Z,6.73
2018-06-21T00:47:16.369Z,6.77
2018-06-21T00:49:45.324Z,7.07
2018-06-21T00:52:13.531Z,8.13
2018-06-21T00:54:41.777Z,6.50
2018-06-21T00:57:10.013Z,8.17
2018-06-21T00:59:38.212Z,8.23
2018-06-21T01:02:06.411Z,6.67
2018-06-21T01:04:34.711Z,6.53
2018-06-21T01:07:03.492Z,9.23
2018-06-21T01:09:31.705Z,7.33
2018-06-21T01:12:00.536Z,7.93
2018-06-21T01:14:28.817Z,7.37
2018-06-21T01:16:57.052Z,9.47
2018-06-21T01:19:25.264Z,9.67
2018-06-21T01:21:53.463Z,8.20
2018-06-21T01:24:22.820Z,7.47
2018-06-21T01:26:51.039Z,10.43
2018-06-21T01:29:19.340Z,12.47
2018-06-21T01:31:47.524Z,9.10
2018-06-21T01:34:15.719Z,8.27
2018-06-21T01:36:44.000Z,10.20
2018-06-21T01:39:12.167Z,8.93
2018-06-21T01:41:40.383Z,10.23
2018-06-21T01:44:08.594Z,12.07
2018-06-21T01:46:36.810Z,8.60
2018-06-21T01:49:05.052Z,10.90
2018-06-21T01:51:33.265Z,9.20
2018-06-21T01:54:01.468Z,9.70
2018-06-21T01:56:29.688Z,9.63
2018-06-21T01:58:57.929Z,11.17
2018-06-21T02:01:26.100Z,9.63
2018-06-21T02:03:54.321Z,9.47
2018-06-21T02:06:22.521Z,11.37
2018-06-21T02:08:50.836Z,10.60
2018-06-21T02:11:19.284Z,8.83
2018-06-21T02:13:47.575Z,8.93
2018-06-21T02:16:15.802Z,11.30
2018-06-21T02:18:44.020Z,8.27
2018-06-21T02:21:12.241Z,12.23
2018-06-21T02:23:40.433Z,8.47
2018-06-21T02:26:09.572Z,12.27
2018-06-21T02:28:37.760Z,9.57
2018-06-21T02:31:06.010Z,8.93
2018-06-21T02:33:34.224Z,7.63
2018-06-21T02:36:02.440Z,11.53
2018-06-21T02:38:30.658Z,10.17
2018-06-21T02:40:58.903Z,10.73
2018-06-21T02:43:27.185Z,13.57
2018-06-21T02:45:55.352Z,9.13
2018-06-21T02:48:23.557Z,9.40
2018-06-21T02:50:51.827Z,8.60
2018-06-21T02:53:20.025Z,8.87
2018-06-21T02:55:48.229Z,8.57
2018-06-21T02:58:16.441Z,13.83
2018-06-21T03:00:44.861Z,12.07
2018-06-21T03:03:13.088Z,9.53
2018-06-21T03:05:41.312Z,8.50
2018-06-21T03:08:09.545Z,10.60
2018-06-21T03:10:37.760Z,8.20
2018-06-21T03:13:05.970Z,11.80
2018-06-21T03:15:34.233Z,8.50
2018-06-21T03:18:02.440Z,11.77
2018-06-21T03:20:30.640Z,11.03
2018-06-21T03:22:58.861Z,9.57
2018-06-21T03:25:27.077Z,10.37
2018-06-21T03:27:55.289Z,10.30
2018-06-21T03:30:23.476Z,9.50
2018-06-21T03:32:51.760Z,11.03
2018-06-21T03:35:20.074Z,8.27
2018-06-21T03:37:48.249Z,11.07
2018-06-21T03:40:16.681Z,10.33
2018-06-21T03:42:44.908Z,11.40
2018-06-21T03:45:13.193Z,9.07
2018-06-21T03:47:41.424Z,14.17
2018-06-21T03:50:09.649Z,12.63
2018-06-21T03:52:37.892Z,10.93
2018-06-21T03:55:06.076Z,8.13
2018-06-21T03:57:34.305Z,9.87
2018-06-21T04:00:02.524Z,10.87
2018-06-21T04:02:30.894Z,10.67
2018-06-21T04:04:59.092Z,11.13
2018-06-21T04:07:27.317Z,9.97
2018-06-21T04:09:55.528Z,11.87
2018-06-21T04:12:23.757Z,8.07
2018-06-21T04:14:51.977Z,12.03
2018-06-21T04:17:20.172Z,8.53
2018-06-21T04:19:48.403Z,9.70
2018-06-21T04:22:16.608Z,11.53
2018-06-21T04:24:44.930Z,14.63
2018-06-21T04:27:13.266Z,9.73
2018-06-21T04:29:41.477Z,8.57
2018-06-21T04:32:09.660Z,9.87
2018-06-21T04:34:37.880Z,8.57
2018-06-21T04:37:06.116Z,8.43
2018-06-21T04:39:34.339Z,12.60
2018-06-21T04:42:02.693Z,9.30
2018-06-21T04:44:30.892Z,10.40
2018-06-21T04:46:59.108Z,10.20
2018-06-21T04:49:27.319Z,12.37
2018-06-21T04:51:55.540Z,10.10
2018-06-21T04:54:23.778Z,8.90
2018-06-21T04:56:51.984Z,10.37
2018-06-21T04:59:20.208Z,8.23
2018-06-21T05:01:48.414Z,9.63
2018-06-21T05:04:16.694Z,9.20
2018-06-21T05:06:44.876Z,8.20
2018-06-21T05:09:13.256Z,9.57
2018-06-21T05:11:42.296Z,8.37
2018-06-21T05:14:10.556Z,7.57
2018-06-21T05:16:38.783Z,9.80
2018-06-21T05:19:07.067Z,10.73
2018-06-21T05:21:35.335Z,7.40
2018-06-21T05:24:03.554Z,9.43
2018-06-21T05:26:31.789Z,11.97
2018-06-21T05:29:00.667Z,8.73
2018-06-21T05:31:29.040Z,10.60
2018-06-21T05:33:57.296Z,10.60
2018-06-21T05:36:25.573Z,9.93
2018-06-21T05:38:53.793Z,9.53
2018-06-21T05:41:21.991Z,10.23
2018-06-21T05:43:50.208Z,8.97
2018-06-21T05:46:18.185Z,6.50
2018-06-21T05:48:46.406Z,8.27
2018-06-21T05:51:14.616Z,8.63
2018-06-21T05:53:42.852Z,7.70
2018-06-21T05:56:10.837Z,6.40
2018-06-21T05:58:39.027Z,6.60
2018-06-21T06:01:07.373Z,8.37
2018-06-21T06:03:36.338Z,6.80
2018-06-21T06:06:04.584Z,9.57
2018-06-21T06:08:32.845Z,6.43
2018-06-21T06:11:01.698Z,7.80
2018-06-21T06:13:29.936Z,7.60
2018-06-21T06:15:58.120Z,5.73
2018-06-21T06:18:27.243Z,8.10
2018-06-21T06:20:55.588Z,4.07
2018-06-21T06:23:23.804Z,4.77
2018-06-21T06:25:52.084Z,2.70
2018-06-21T06:28:20.292Z,3.37
2018-06-21T06:30:48.497Z,6.70
2018-06-21T06:33:16.711Z,3.90
2018-06-21T06:35:44.916Z,2.60
2018-06-21T06:38:13.120Z,2.33
2018-06-21T06:40:41.320Z,3.47
2018-06-21T06:43:09.528Z,1.97
2018-06-21T06:45:37.756Z,1.97
2018-06-21T06:48:05.931Z,2.70
2018-06-21T06:50:34.144Z,1.67
2018-06-21T06:53:02.340Z,1.90
2018-06-21T06:55:30.547Z,1.70
2018-06-21T06:57:58.781Z,2.70
2018-06-21T07:00:27.005Z,2.33
2018-06-21T07:02:55.198Z,3.00
2018-06-21T07:05:23.420Z,5.33
2018-06-21T07:07:51.726Z,1.73
2018-06-21T07:10:19.649Z,2.43
2018-06-21T07:12:47.853Z,3.23
2018-06-21T07:15:16.089Z,2.20
2018-06-21T07:17:44.297Z,2.10
2018-06-21T07:20:12.519Z,1.50
2018-06-21T07:22:40.711Z,1.50
2018-06-21T07:25:08.925Z,1.80
2018-06-21T07:27:37.137Z,2.20
2018-06-21T07:30:05.356Z,2.63
2018-06-21T07:32:33.663Z,2.77
2018-06-21T07:35:01.953Z,1.43
2018-06-21T07:37:30.189Z,1.53
2018-06-21T07:39:58.384Z,2.20
2018-06-21T07:42:26.596Z,1.97
2018-06-21T07:44:54.800Z,1.70
2018-06-21T07:47:23.021Z,2.23
2018-06-21T07:49:51.228Z,2.67
2018-06-21T07:52:19.481Z,1.40
2018-06-21T07:54:47.695Z,1.83
2018-06-21T07:57:15.928Z,1.90
2018-06-21T07:59:44.164Z,2.50
2018-06-21T08:02:12.356Z,1.90
2018-06-21T08:04:40.567Z,4.10
2018-06-21T08:07:08.836Z,2.17
2018-06-21T08:09:37.037Z,3.47
2018-06-21T08:12:05.256Z,2.93
2018-06-21T08:14:33.649Z,3.63
2018-06-21T08:17:01.831Z,3.13
2018-06-21T08:19:30.159Z,2.50
2018-06-21T08:21:58.099Z,2.63
2018-06-21T08:24:26.445Z,4.93
2018-06-21T08:26:54.725Z,3.73
2018-06-21T08:29:22.901Z,2.80
2018-06-21T08:31:51.113Z,3.10
2018-06-21T08:34:19.379Z,4.80
2018-06-21T08:36:48.818Z,2.67
2018-06-21T08:39:17.054Z,5.77
2018-06-21T08:41:45.240Z,3.30
2018-06-21T08:44:13.460Z,4.90
2018-06-21T08:46:41.676Z,4.47
2018-06-21T08:49:09.859Z,7.33
2018-06-21T08:51:38.067Z,4.27
2018-06-21T08:54:06.325Z,5.13
2018-06-21T08:56:34.528Z,3.67
2018-06-21T08:59:02.735Z,4.80
2018-06-21T09:01:30.948Z,5.43
2018-06-21T09:03:59.140Z,4.37
2018-06-21T09:06:27.356Z,2.73
2018-06-21T09:08:55.554Z,4.37
2018-06-21T09:11:23.772Z,3.53
2018-06-21T09:13:51.968Z,3.87
2018-06-21T09:16:20.232Z,4.70
2018-06-21T09:18:48.413Z,3.53
2018-06-21T09:21:16.620Z,3.10
2018-06-21T09:23:44.820Z,5.13
2018-06-21T09:26:12.765Z,3.77
2018-06-21T09:28:40.994Z,4.17
2018-06-21T09:31:09.233Z,3.93
2018-06-21T09:33:37.669Z,4.77
2018-06-21T09:36:05.893Z,6.80
2018-06-21T09:38:39.597Z,3.50
2018-06-21T09:41:13.288Z,5.03
2018-06-21T09:43:50.300Z,5.37
2018-06-21T09:46:20.525Z,4.97
2018-06-21T09:48:52.523Z,4.53
2018-06-21T09:51:21.170Z,3.30
2018-06-21T09:53:49.600Z,3.50
2018-06-21T09:56:17.796Z,5.80
2018-06-21T09:58:46.041Z,3.87
2018-06-21T10:01:15.085Z,4.07
2018-06-21T10:06:17.508Z,3.77
2018-06-21T10:08:45.705Z,3.23
2018-06-21T10:11:14.020Z,4.23
2018-06-21T10:13:42.271Z,2.93
2018-06-21T10:16:10.505Z,9.37
2018-06-21T10:18:38.731Z,3.03
2018-06-21T10:21:06.954Z,4.17
2018-06-21T10:23:35.189Z,4.60
2018-06-21T10:26:03.410Z,4.37
2018-06-21T10:28:31.613Z,4.37
2018-06-21T10:30:59.908Z,4.60
2018-06-21T10:33:28.126Z,4.17
2018-06-21T10:35:56.317Z,3.43
2018-06-21T10:38:24.544Z,3.80
2018-06-21T10:40:52.731Z,2.97
2018-06-21T10:43:20.936Z,4.77
2018-06-21T10:45:49.187Z,4.40
2018-06-21T10:48:17.433Z,4.77
2018-06-21T10:50:45.635Z,3.73
2018-06-21T10:53:13.824Z,3.57
2018-06-21T10:55:42.042Z,3.13
2018-06-21T10:58:11.160Z,5.10
2018-06-21T11:00:39.393Z,3.10
2018-06-21T11:03:07.600Z,3.87
2018-06-21T11:05:35.824Z,2.90
2018-06-21T11:08:04.013Z,3.33
2018-06-21T11:10:32.232Z,4.20
2018-06-21T11:13:00.482Z,3.00
2018-06-21T11:15:28.683Z,2.93
2018-06-21T11:17:56.901Z,3.20
2018-06-21T11:20:25.136Z,3.57
2018-06-21T11:22:53.857Z,4.90
2018-06-21T11:25:22.082Z,2.80
2018-06-21T11:27:50.444Z,3.83
2018-06-21T11:30:18.509Z,3.33
2018-06-21T11:32:46.719Z,3.00
2018-06-21T11:35:14.973Z,2.07
2018-06-21T11:37:43.169Z,3.80
2018-06-21T11:40:11.413Z,4.67
2018-06-21T11:42:39.737Z,2.33
2018-06-21T11:45:07.960Z,3.60
2018-06-21T11:47:36.236Z,3.53
2018-06-21T11:50:04.440Z,3.30
2018-06-21T11:52:32.676Z,5.57
2018-06-21T11:55:00.860Z,3.10
2018-06-21T11:57:29.067Z,3.00
2018-06-21T11:59:57.319Z,2.30
2018-06-21T12:02:25.573Z,4.50
2018-06-21T12:04:53.787Z,3.47
2018-06-21T12:07:21.989Z,2.67
2018-06-21T12:09:50.204Z,4.27
2018-06-21T12:12:18.405Z,3.53
2018-06-21T12:14:46.613Z,5.90
2018-06-21T12:17:14.814Z,4.87
2018-06-21T12:19:43.022Z,3.07
2018-06-21T12:22:11.330Z,5.00
2018-06-21T12:24:39.544Z,3.43
2018-06-21T12:27:07.824Z,2.40
2018-06-21T12:29:36.021Z,3.27
2018-06-21T12:32:04.265Z,4.20
2018-06-21T12:34:32.441Z,6.50
2018-06-21T12:37:00.668Z,4.10
2018-06-21T12:39:28.920Z,2.30
2018-06-21T12:41:57.140Z,2.83
2018-06-21T12:44:25.504Z,4.07
2018-06-21T12:46:53.702Z,5.07
2018-06-21T12:49:21.936Z,6.83
2018-06-21T12:51:50.149Z,3.20
2018-06-21T12:54:18.333Z,3.23
2018-06-21T12:56:46.563Z,3.23
2018-06-21T12:59:14.760Z,4.00
2018-06-21T13:01:43.109Z,3.20
2018-06-21T13:04:11.307Z,4.23
2018-06-21T13:06:39.521Z,3.03
2018-06-21T13:09:19.117Z,6.13
2018-06-21T13:12:27.152Z,6.23
2018-06-21T13:14:55.932Z,2.40
2018-06-21T13:17:24.453Z,3.37
2018-06-21T13:19:52.665Z,1.70
2018-06-21T13:22:20.909Z,2.67
2018-06-21T13:24:49.200Z,2.23
2018-06-21T13:27:17.416Z,2.03
2018-06-21T13:29:45.642Z,3.20
2018-06-21T13:32:13.904Z,1.77
2018-06-21T13:34:42.120Z,2.97
2018-06-21T13:37:10.425Z,2.23
2018-06-21T13:39:38.327Z,3.07
2018-06-21T13:42:06.537Z,3.10
2018-06-21T13:44:34.736Z,3.43
2018-06-21T13:47:03.439Z,3.80
2018-06-21T13:49:31.631Z,3.40
2018-06-21T13:51:59.856Z,2.60
2018-06-21T13:54:28.366Z,3.27
2018-06-21T13:56:56.972Z,3.53
2018-06-21T13:59:25.177Z,2.77
2018-06-21T14:01:53.390Z,2.57
2018-06-21T14:04:21.640Z,3.57
2018-06-21T14:06:49.900Z,5.50
2018-06-21T14:09:18.126Z,3.13
2018-06-21T14:11:46.360Z,2.00
2018-06-21T14:14:14.581Z,3.10
2018-06-21T14:16:42.788Z,5.37
2018-06-21T14:19:11.042Z,1.73
2018-06-21T14:21:39.209Z,3.00
2018-06-21T14:24:09.913Z,2.73
2018-06-21T14:26:38.371Z,1.40
2018-06-21T14:29:06.765Z,2.00
2018-06-21T14:31:35.188Z,4.57
2018-06-21T14:34:03.485Z,3.10
2018-06-21T14:36:32.346Z,1.77
2018-06-21T14:39:00.696Z,2.97
2018-06-21T14:41:29.134Z,3.97
2018-06-21T14:43:57.324Z,3.67
2018-06-21T14:46:25.593Z,1.40
2018-06-21T14:48:53.895Z,2.83
2018-06-21T14:51:22.110Z,2.50
2018-06-21T14:53:50.376Z,2.13
2018-06-21T14:56:18.542Z,3.47
2018-06-21T14:58:46.771Z,1.30
2018-06-21T15:01:14.981Z,2.17
2018-06-21T15:03:43.199Z,2.83
2018-06-21T15:06:11.445Z,2.50
2018-06-21T15:08:39.678Z,2.10
2018-06-21T15:11:07.884Z,2.57
2018-06-21T15:13:36.197Z,1.30
2018-06-21T15:16:04.438Z,1.83
2018-06-21T15:18:32.680Z,1.90
2018-06-21T15:21:00.912Z,2.90
2018-06-21T15:23:29.152Z,1.73
2018-06-21T15:25:57.429Z,2.80
2018-06-21T15:28:25.695Z,2.20
2018-06-21T15:30:53.900Z,4.27
2018-06-21T15:33:22.136Z,2.67
2018-06-21T15:35:50.362Z,3.60
2018-06-21T15:38:19.485Z,3.40
2018-06-21T15:40:47.707Z,2.27
2018-06-21T15:43:15.887Z,3.83
2018-06-21T15:45:44.092Z,2.40
2018-06-21T15:48:12.281Z,1.60
2018-06-21T15:50:40.621Z,2.47
2018-06-21T15:53:08.876Z,1.90
2018-06-21T15:55:37.092Z,2.30
2018-06-21T15:58:05.327Z,4.37
2018-06-21T16:00:33.548Z,2.33
2018-06-21T16:03:01.803Z,2.10
2018-06-21T16:05:30.168Z,1.83
2018-06-21T16:07:58.361Z,2.73
2018-06-21T16:10:26.633Z,1.23
2018-06-21T16:12:54.820Z,1.50
2018-06-21T16:15:23.016Z,3.13
2018-06-21T16:17:51.233Z,3.07
2018-06-21T16:20:19.437Z,3.00
2018-06-21T16:22:47.790Z,3.47
2018-06-21T16:25:15.953Z,4.60
2018-06-21T16:27:44.173Z,2.63
2018-06-21T16:30:12.413Z,2.13
2018-06-21T16:32:40.665Z,2.70
2018-06-21T16:35:09.011Z,3.87
2018-06-21T16:37:37.267Z,2.20
2018-06-21T16:40:05.501Z,3.77
2018-06-21T16:42:33.700Z,3.90
2018-06-21T16:45:01.933Z,3.30
2018-06-21T16:47:30.168Z,3.00
2018-06-21T16:49:58.377Z,3.10
2018-06-21T16:52:26.592Z,2.40
2018-06-21T16:54:55.412Z,4.40
2018-06-21T16:57:23.628Z,4.50
2018-06-21T16:59:51.824Z,3.37
2018-06-21T17:02:21.071Z,5.97
2018-06-21T17:04:49.267Z,3.57
2018-06-21T17:07:18.112Z,4.67
2018-06-21T17:09:46.304Z,4.30
2018-06-21T17:12:14.525Z,3.57
2018-06-21T17:14:42.744Z,4.33
2018-06-21T17:17:10.981Z,6.57
2018-06-21T17:19:39.201Z,1.37
2018-06-21T17:22:07.413Z,3.43
2018-06-21T17:24:35.614Z,5.73
2018-06-21T17:27:03.837Z,3.00
2018-06-21T17:29:32.049Z,4.93
2018-06-21T17:32:00.262Z,1.50
2018-06-21T17:34:28.481Z,6.27
2018-06-21T17:36:56.743Z,3.53
2018-06-21T17:39:24.917Z,3.53
2018-06-21T17:41:53.152Z,3.67
2018-06-21T17:44:21.373Z,4.67
2018-06-21T17:46:49.608Z,2.93
2018-06-21T17:49:17.819Z,3.80
2018-06-21T17:51:46.045Z,4.73
2018-06-21T17:54:14.265Z,3.93
2018-06-21T17:56:42.509Z,4.30
2018-06-21T17:59:10.733Z,3.90
2018-06-21T18:01:38.928Z,4.33
2018-06-21T18:04:07.199Z,1.50
2018-06-21T18:06:35.420Z,5.63
2018-06-21T18:09:04.768Z,2.70
2018-06-21T18:11:33.020Z,3.10
2018-06-21T18:14:01.223Z,2.53
2018-06-21T18:16:29.432Z,2.93
2018-06-21T18:18:57.640Z,5.07
2018-06-21T18:21:25.951Z,8.87
2018-06-21T18:23:54.384Z,5.13
2018-06-21T18:26:22.677Z,3.23
2018-06-21T18:28:50.981Z,4.73
2018-06-21T18:31:19.140Z,2.30
2018-06-21T18:33:47.376Z,5.97
2018-06-21T18:36:15.569Z,6.17
2018-06-21T18:38:43.777Z,3.57
2018-06-21T18:41:12.069Z,2.70
2018-06-21T18:43:40.360Z,3.50
2018-06-21T18:46:08.591Z,4.83
2018-06-21T18:48:36.791Z,5.73
2018-06-21T18:51:05.041Z,3.63
2018-06-21T18:53:33.228Z,1.13
2018-06-21T18:56:01.460Z,3.43
2018-06-21T18:58:29.739Z,2.83
2018-06-21T19:00:57.965Z,4.80
2018-06-21T19:03:26.160Z,2.83
2018-06-21T19:05:54.377Z,3.20
2018-06-21T19:08:27.993Z,2.63
2018-06-21T19:11:01.718Z,4.77
2018-06-21T19:13:29.983Z,3.83
2018-06-21T19:15:58.284Z,1.80
2018-06-21T19:18:26.501Z,2.90
2018-06-21T19:20:54.772Z,5.73
2018-06-21T19:23:22.972Z,4.23
2018-06-21T19:25:51.221Z,5.73
2018-06-21T19:28:19.425Z,2.63
2018-06-21T19:30:47.616Z,5.80
2018-06-21T19:33:15.836Z,4.27
2018-06-21T19:35:44.036Z,5.23
2018-06-21T19:38:12.265Z,5.70
2018-06-21T19:40:40.456Z,3.87
2018-06-21T19:43:08.715Z,6.53
2018-06-21T19:45:36.897Z,6.47
2018-06-21T19:48:05.201Z,5.40
2018-06-21T19:50:33.417Z,6.33
2018-06-21T19:53:01.406Z,5.13
2018-06-21T19:55:29.613Z,3.50
2018-06-21T19:57:57.812Z,6.33
2018-06-21T20:00:26.118Z,6.27
2018-06-21T20:03:00.272Z,6.63
2018-06-21T20:05:28.884Z,3.07
2018-06-21T20:07:57.913Z,6.43
2018-06-21T20:10:26.693Z,9.20
2018-06-21T20:12:54.880Z,4.37
2018-06-21T20:15:22.848Z,7.20
2018-06-21T20:17:51.084Z,2.07
2018-06-21T20:20:24.684Z,9.67
2018-06-21T20:22:52.904Z,8.73
2018-06-21T20:25:22.013Z,4.53
2018-06-21T20:27:50.216Z,3.83
2018-06-21T20:30:18.414Z,3.70
2018-06-21T20:32:46.620Z,6.47
2018-06-21T20:35:14.832Z,4.03
2018-06-21T20:37:43.072Z,6.60
2018-06-21T20:40:11.268Z,4.43
2018-06-21T20:42:39.802Z,4.53
2018-06-21T20:45:08.231Z,7.83
2018-06-21T20:47:36.436Z,3.83
2018-06-21T20:50:04.661Z,5.47
2018-06-21T20:52:32.857Z,5.90
2018-06-21T20:55:01.065Z,9.40
2018-06-21T20:57:29.904Z,4.37
2018-06-21T20:59:58.287Z,5.57
2018-06-21T21:02:26.596Z,9.90
2018-06-21T21:05:15.873Z,5.60
2018-06-21T21:07:45.176Z,4.87
2018-06-21T21:10:14.712Z,7.00
2018-06-21T21:12:42.948Z,8.40
2018-06-21T21:15:12.233Z,6.27
2018-06-21T21:17:40.470Z,4.87
2018-06-21T21:20:09.096Z,7.10
2018-06-21T21:22:38.334Z,6.10
2018-06-21T21:25:06.552Z,7.43
2018-06-21T21:27:34.789Z,6.33
2018-06-21T21:30:03.056Z,4.90
2018-06-21T21:32:31.245Z,5.13
2018-06-21T21:34:59.477Z,5.80
2018-06-21T21:37:28.228Z,3.27
2018-06-21T21:39:58.153Z,7.57
2018-06-21T21:42:26.750Z,3.93
2018-06-21T21:44:54.960Z,6.40
2018-06-21T21:47:23.182Z,8.43
2018-06-21T21:49:51.365Z,6.50
2018-06-21T21:52:19.596Z,2.23
2018-06-21T21:54:47.825Z,5.03
2018-06-21T21:57:16.036Z,5.17
2018-06-21T21:59:44.309Z,4.23
2018-06-21T22:02:12.521Z,3.67
2018-06-21T22:04:40.793Z,3.43
2018-06-21T22:07:08.968Z,6.80
2018-06-21T22:09:37.156Z,8.13
2018-06-21T22:12:05.604Z,4.80
2018-06-21T22:14:33.804Z,6.07
2018-06-21T22:17:02.009Z,2.80
2018-06-21T22:19:30.221Z,5.40
2018-06-21T22:21:58.513Z,5.87
2018-06-21T22:24:26.788Z,3.80
2018-06-21T22:26:55.029Z,5.67
2018-06-21T22:29:23.224Z,6.47
2018-06-21T22:31:51.569Z,1.57
2018-06-21T22:34:20.092Z,2.73
2018-06-21T22:36:48.430Z,6.23
2018-06-21T22:39:16.636Z,4.30
2018-06-21T22:41:45.393Z,5.50
2018-06-21T22:44:13.940Z,5.63
2018-06-21T22:46:42.362Z,7.87
2018-06-21T22:49:10.748Z,4.67
2018-06-21T22:51:39.490Z,3.60
2018-06-21T22:54:08.145Z,6.80
2018-06-21T22:56:36.380Z,4.33
2018-06-21T22:59:04.580Z,6.63
2018-06-21T23:01:32.830Z,6.77
2018-06-21T23:04:01.038Z,5.13
2018-06-21T23:06:29.228Z,4.20
2018-06-21T23:08:58.033Z,8.40
2018-06-21T23:11:26.229Z,8.13
2018-06-21T23:13:54.436Z,4.93
2018-06-21T23:16:22.672Z,3.70
2018-06-21T23:18:56.375Z,5.97
2018-06-21T23:21:24.581Z,4.73
2018-06-21T23:23:52.798Z,6.97
2018-06-21T23:26:21.084Z,8.43
2018-06-21T23:28:49.293Z,5.70
2018-06-21T23:31:17.581Z,7.53
2018-06-21T23:33:45.781Z,4.50
2018-06-21T23:36:13.972Z,3.23
2018-06-21T23:38:42.173Z,5.73
2018-06-21T23:41:10.406Z,4.77
2018-06-21T23:43:38.617Z,3.87
2018-06-21T23:46:06.812Z,3.83
2018-06-21T23:48:35.033Z,3.53
2018-06-21T23:51:03.256Z,3.73
2018-06-21T23:53:31.477Z,2.57
2018-06-21T23:55:59.688Z,4.37
2018-06-21T23:58:27.881Z,5.07
